createdAt,value
2022-11-30T00:01:16.234Z,0.68
2022-11-30T00:03:44.098Z,0.57
2022-11-30T00:06:13.006Z,0.43
2022-11-30T00:08:40.923Z,0.43
2022-11-30T00:11:15.795Z,0.47
2022-11-30T00:13:43.668Z,0.32
2022-11-30T00:16:11.502Z,0.70
2022-11-30T00:18:39.194Z,0.20
2022-11-30T00:21:11.463Z,0.50
2022-11-30T00:23:40.414Z,0.30
2022-11-30T00:26:16.967Z,0.40
2022-11-30T00:28:46.602Z,0.50
2022-11-30T00:31:17.053Z,0.68
2022-11-30T00:33:45.162Z,0.30
2022-11-30T00:36:18.916Z,0.50
2022-11-30T00:38:46.758Z,0.43
2022-11-30T00:41:14.657Z,0.50
2022-11-30T00:43:42.669Z,0.40
2022-11-30T00:46:10.785Z,0.50
2022-11-30T00:48:39.307Z,0.43
2022-11-30T00:51:07.560Z,0.40
2022-11-30T00:53:37.890Z,0.77
2022-11-30T00:56:05.787Z,0.30
2022-11-30T00:58:33.560Z,0.57
2022-11-30T01:01:01.599Z,0.40
2022-11-30T01:03:30.638Z,0.50
2022-11-30T01:06:03.011Z,0.50
2022-11-30T01:08:30.796Z,0.50
2022-11-30T01:11:13.084Z,0.47
2022-11-30T01:13:40.808Z,0.32
2022-11-30T01:16:15.865Z,0.43
2022-11-30T01:18:44.553Z,0.50
2022-11-30T01:21:13.907Z,0.40
2022-11-30T01:23:42.121Z,0.55
2022-11-30T01:26:10.199Z,0.40
2022-11-30T01:28:37.946Z,0.60
2022-11-30T01:31:11.321Z,0.40
2022-11-30T01:33:39.399Z,0.38
2022-11-30T01:36:17.777Z,0.35
2022-11-30T01:38:56.438Z,0.55
2022-11-30T01:41:25.527Z,0.30
2022-11-30T01:43:54.491Z,0.30
2022-11-30T01:46:25.409Z,0.50
2022-11-30T01:49:11.419Z,0.40
2022-11-30T01:51:45.578Z,0.63
2022-11-30T01:54:15.383Z,0.60
2022-11-30T01:56:51.529Z,0.30
2022-11-30T01:59:20.878Z,0.60
2022-11-30T02:01:48.706Z,0.30
2022-11-30T02:04:27.784Z,0.60
2022-11-30T02:06:55.602Z,0.47
2022-11-30T02:09:23.578Z,0.80
2022-11-30T02:11:51.535Z,0.77
2022-11-30T02:14:46.970Z,0.73
2022-11-30T02:17:15.079Z,0.43
2022-11-30T02:20:05.572Z,0.70
2022-11-30T02:22:36.749Z,0.40
2022-11-30T02:25:11.402Z,0.57
2022-11-30T02:27:39.138Z,0.40
2022-11-30T02:30:10.266Z,0.45
2022-11-30T02:32:44.248Z,0.40
2022-11-30T02:35:13.018Z,0.80
2022-11-30T02:37:41.453Z,0.22
2022-11-30T02:40:17.919Z,0.82
2022-11-30T02:45:13.616Z,0.70
2022-11-30T02:47:53.713Z,0.60
2022-11-30T02:50:23.479Z,0.50
2022-11-30T02:52:51.718Z,0.45
2022-11-30T02:55:20.618Z,0.55
2022-11-30T02:57:48.521Z,0.70
2022-11-30T03:00:19.562Z,0.45
2022-11-30T03:02:47.562Z,0.85
2022-11-30T03:05:15.425Z,0.32
2022-11-30T03:07:43.271Z,0.22
2022-11-30T03:10:11.244Z,0.65
2022-11-30T03:12:39.124Z,0.55
2022-11-30T03:15:07.305Z,0.82
2022-11-30T03:17:35.176Z,0.70
2022-11-30T03:20:02.934Z,0.43
2022-11-30T03:22:31.943Z,0.60
2022-11-30T03:24:59.848Z,0.90
2022-11-30T03:27:27.629Z,0.50
2022-11-30T03:29:55.520Z,0.40
2022-11-30T03:32:23.230Z,0.60
2022-11-30T03:34:50.944Z,0.50
2022-11-30T03:37:18.796Z,0.43
2022-11-30T03:39:46.610Z,0.75
2022-11-30T03:42:14.362Z,0.70
2022-11-30T03:44:42.194Z,0.80
2022-11-30T03:47:10.025Z,0.40
2022-11-30T03:49:37.884Z,0.60
2022-11-30T03:52:05.901Z,0.65
2022-11-30T03:54:33.900Z,1.20
2022-11-30T03:57:01.918Z,0.60
2022-11-30T03:59:29.887Z,1.02
2022-11-30T04:01:58.243Z,0.45
2022-11-30T04:04:26.005Z,0.60
2022-11-30T04:06:53.994Z,0.55
2022-11-30T04:09:21.848Z,0.85
2022-11-30T04:11:49.695Z,0.63
2022-11-30T04:14:17.454Z,0.43
2022-11-30T04:16:45.300Z,0.50
2022-11-30T04:19:13.059Z,0.50
2022-11-30T04:21:41.870Z,0.52
2022-11-30T04:24:10.089Z,0.32
2022-11-30T04:26:37.908Z,0.88
2022-11-30T04:29:05.584Z,0.68
2022-11-30T04:31:33.536Z,0.85
2022-11-30T04:34:01.391Z,0.38
2022-11-30T04:36:29.127Z,1.15
2022-11-30T04:38:56.848Z,0.57
2022-11-30T04:41:27.083Z,0.88
2022-11-30T04:46:22.617Z,0.45
2022-11-30T04:48:50.421Z,0.43
2022-11-30T04:51:18.206Z,0.95
2022-11-30T04:53:46.043Z,0.57
2022-11-30T04:56:13.938Z,0.70
2022-11-30T04:58:41.751Z,0.95
2022-11-30T05:01:09.699Z,0.90
2022-11-30T05:03:37.489Z,0.73
2022-11-30T05:06:05.196Z,0.60
2022-11-30T05:08:33.158Z,0.50
2022-11-30T05:11:01.019Z,0.60
2022-11-30T05:13:28.949Z,2.10
2022-11-30T05:15:56.828Z,0.80
2022-11-30T05:18:24.702Z,0.70
2022-11-30T05:20:53.806Z,0.70
2022-11-30T05:23:22.345Z,0.70
2022-11-30T05:25:50.110Z,1.08
2022-11-30T05:28:17.909Z,1.00
2022-11-30T05:30:45.742Z,1.05
2022-11-30T05:33:13.601Z,1.30
2022-11-30T05:35:41.521Z,0.65
2022-11-30T05:38:09.505Z,0.85
2022-11-30T05:40:37.267Z,0.90
2022-11-30T05:43:05.973Z,1.92
2022-11-30T05:45:33.852Z,2.58
2022-11-30T05:48:02.157Z,0.90
2022-11-30T05:50:30.095Z,1.65
2022-11-30T05:52:58.343Z,1.23
2022-11-30T05:55:26.237Z,1.25
2022-11-30T05:57:55.487Z,1.23
2022-11-30T06:00:23.395Z,2.88
2022-11-30T06:02:56.478Z,3.75
2022-11-30T06:05:24.304Z,4.95
2022-11-30T06:07:52.229Z,1.23
2022-11-30T06:10:20.283Z,2.67
2022-11-30T06:12:48.856Z,2.20
2022-11-30T06:15:16.845Z,5.43
2022-11-30T06:17:44.965Z,2.92
2022-11-30T06:20:12.984Z,3.80
2022-11-30T06:22:41.927Z,4.47
2022-11-30T06:25:09.851Z,2.40
2022-11-30T06:27:37.664Z,1.48
2022-11-30T06:30:05.775Z,1.60
2022-11-30T06:32:33.533Z,1.63
2022-11-30T06:35:01.493Z,2.80
2022-11-30T06:37:29.295Z,1.92
2022-11-30T06:40:12.293Z,4.63
2022-11-30T06:42:40.768Z,3.08
2022-11-30T06:45:08.882Z,1.80
2022-11-30T06:47:36.637Z,3.13
2022-11-30T06:50:05.121Z,4.45
2022-11-30T06:52:33.250Z,1.75
2022-11-30T06:55:01.030Z,2.40
2022-11-30T06:57:29.636Z,3.38
2022-11-30T06:59:58.003Z,3.03
2022-11-30T07:02:28.951Z,2.22
2022-11-30T07:04:56.705Z,4.10
2022-11-30T07:07:24.518Z,4.57
2022-11-30T07:09:52.314Z,4.88
2022-11-30T07:12:20.169Z,2.95
2022-11-30T07:14:48.214Z,5.18
2022-11-30T07:17:16.112Z,1.75
2022-11-30T07:19:44.008Z,4.20
2022-11-30T07:22:13.137Z,3.85
2022-11-30T07:24:59.799Z,5.60
2022-11-30T07:27:27.919Z,4.43
2022-11-30T07:29:56.160Z,5.25
2022-11-30T07:32:24.295Z,11.23
2022-11-30T07:34:52.069Z,9.18
2022-11-30T07:37:20.255Z,5.43
2022-11-30T07:39:48.545Z,6.57
2022-11-30T07:42:17.776Z,5.78
2022-11-30T07:44:46.400Z,6.50
2022-11-30T07:47:15.047Z,6.95
2022-11-30T07:49:43.290Z,8.82
2022-11-30T07:52:11.658Z,8.55
2022-11-30T07:54:39.938Z,8.88
2022-11-30T07:57:19.506Z,5.57
2022-11-30T07:59:47.797Z,5.60
2022-11-30T08:02:16.064Z,5.13
2022-11-30T08:04:44.310Z,5.85
2022-11-30T08:07:12.297Z,5.35
2022-11-30T08:09:40.261Z,4.88
2022-11-30T08:12:08.467Z,4.38
2022-11-30T08:15:03.651Z,8.57
2022-11-30T08:17:24.395Z,4.63
2022-11-30T08:19:52.341Z,4.97
2022-11-30T08:22:21.261Z,3.50
2022-11-30T08:24:49.744Z,3.38
2022-11-30T08:27:18.617Z,5.53
2022-11-30T08:29:46.559Z,6.22
2022-11-30T08:32:16.759Z,4.60
2022-11-30T08:37:16.446Z,7.43
2022-11-30T08:39:44.419Z,4.68
2022-11-30T08:42:12.475Z,6.03
2022-11-30T08:44:40.564Z,6.35
2022-11-30T08:47:09.086Z,5.38
2022-11-30T08:49:37.474Z,7.32
2022-11-30T08:52:20.871Z,8.73
2022-11-30T08:54:50.066Z,6.47
2022-11-30T08:57:19.531Z,5.35
2022-11-30T08:59:47.477Z,5.13
2022-11-30T09:02:19.445Z,5.28
2022-11-30T09:04:49.280Z,5.63
2022-11-30T09:07:17.727Z,7.80
2022-11-30T09:09:48.387Z,5.72
2022-11-30T09:12:16.096Z,5.30
2022-11-30T09:14:46.300Z,4.72
2022-11-30T09:17:15.666Z,5.40
2022-11-30T09:19:43.540Z,4.38
2022-11-30T09:22:12.486Z,3.22
2022-11-30T09:24:40.309Z,4.75
2022-11-30T09:27:08.137Z,6.95
2022-11-30T09:29:37.153Z,6.38
2022-11-30T09:32:05.102Z,6.15
2022-11-30T09:34:33.585Z,7.95
2022-11-30T09:37:01.527Z,5.47
2022-11-30T09:39:29.644Z,6.32
2022-11-30T09:42:22.791Z,5.22
2022-11-30T09:45:20.163Z,5.30
2022-11-30T09:47:54.156Z,10.77
2022-11-30T09:50:23.253Z,5.80
2022-11-30T09:52:58.048Z,6.78
2022-11-30T09:55:32.392Z,4.00
2022-11-30T09:58:02.742Z,4.53
2022-11-30T10:00:30.948Z,5.63
2022-11-30T10:02:59.894Z,4.38
2022-11-30T10:05:51.070Z,4.63
2022-11-30T10:08:52.465Z,4.15
2022-11-30T10:11:38.610Z,4.00
2022-11-30T10:14:14.304Z,4.80
2022-11-30T10:17:08.803Z,3.10
2022-11-30T10:19:42.721Z,5.05
2022-11-30T10:22:26.201Z,5.28
2022-11-30T10:25:11.901Z,5.60
2022-11-30T10:27:39.981Z,5.07
2022-11-30T10:30:14.731Z,4.03
2022-11-30T10:32:46.650Z,3.25
2022-11-30T10:35:37.696Z,6.43
2022-11-30T10:38:37.153Z,4.18
2022-11-30T10:41:36.469Z,4.45
2022-11-30T10:44:10.866Z,6.40
2022-11-30T10:46:39.600Z,4.20
2022-11-30T10:49:08.753Z,4.85
2022-11-30T10:51:39.049Z,5.32
2022-11-30T10:54:23.383Z,4.57
2022-11-30T10:56:51.187Z,3.67
2022-11-30T10:59:18.836Z,5.93
2022-11-30T11:01:46.808Z,3.95
2022-11-30T11:04:14.680Z,4.03
2022-11-30T11:07:04.034Z,7.80
2022-11-30T11:09:34.722Z,4.53
2022-11-30T11:12:06.688Z,5.53
2022-11-30T11:14:38.125Z,4.20
2022-11-30T11:17:26.512Z,8.07
2022-11-30T11:19:54.815Z,6.60
2022-11-30T11:22:24.437Z,5.78
2022-11-30T11:25:08.079Z,4.68
2022-11-30T11:27:41.193Z,4.22
2022-11-30T11:30:38.729Z,5.13
2022-11-30T11:33:12.459Z,5.15
2022-11-30T11:35:43.550Z,5.35
2022-11-30T11:38:20.583Z,4.07
2022-11-30T11:41:07.895Z,5.50
2022-11-30T11:43:57.168Z,7.13
2022-11-30T11:46:25.708Z,4.32
2022-11-30T11:49:03.755Z,4.03
2022-11-30T11:51:37.208Z,3.60
2022-11-30T11:54:33.532Z,6.00
2022-11-30T11:57:01.745Z,8.05
2022-11-30T11:59:52.054Z,5.65
2022-11-30T12:02:19.773Z,7.65
2022-11-30T12:04:51.939Z,4.60
2022-11-30T12:07:23.746Z,8.25
2022-11-30T12:10:21.829Z,4.75
2022-11-30T12:12:55.277Z,4.13
2022-11-30T12:16:10.655Z,7.63
2022-11-30T12:18:38.392Z,3.80
2022-11-30T12:21:17.793Z,7.03
2022-11-30T12:24:13.743Z,5.00
2022-11-30T12:26:41.601Z,4.43
2022-11-30T12:29:38.273Z,4.75
2022-11-30T12:32:06.123Z,6.05
2022-11-30T12:34:43.373Z,5.45
2022-11-30T12:37:22.093Z,6.10
2022-11-30T12:40:01.511Z,6.28
2022-11-30T12:42:43.447Z,6.68
2022-11-30T12:45:29.112Z,4.30
2022-11-30T12:48:25.157Z,5.00
2022-11-30T12:51:29.407Z,4.43
2022-11-30T12:54:16.104Z,5.00
2022-11-30T12:57:06.610Z,3.47
2022-11-30T13:00:02.754Z,5.15
2022-11-30T13:03:11.077Z,5.25
2022-11-30T13:06:06.089Z,6.28
2022-11-30T13:09:12.437Z,4.03
2022-11-30T13:11:44.167Z,4.40
2022-11-30T13:14:28.790Z,6.43
2022-11-30T13:17:02.514Z,5.13
2022-11-30T13:20:04.739Z,4.60
2022-11-30T13:22:36.148Z,3.83
2022-11-30T13:25:08.843Z,4.88
2022-11-30T13:27:41.435Z,3.90
2022-11-30T13:30:18.374Z,7.25
2022-11-30T13:32:57.837Z,4.50
2022-11-30T13:35:29.541Z,5.03
2022-11-30T13:38:36.257Z,3.92
2022-11-30T13:41:06.181Z,4.68
2022-11-30T13:43:52.143Z,3.35
2022-11-30T13:46:20.843Z,4.20
2022-11-30T13:48:49.369Z,6.45
2022-11-30T13:51:37.286Z,4.38
2022-11-30T13:54:27.599Z,5.93
2022-11-30T13:56:56.144Z,4.45
2022-11-30T13:59:27.195Z,4.30
2022-11-30T14:02:33.002Z,4.13
2022-11-30T14:05:19.149Z,3.90
2022-11-30T14:07:48.114Z,3.70
2022-11-30T14:10:42.557Z,6.10
2022-11-30T14:13:10.725Z,2.80
2022-11-30T14:15:38.519Z,6.03
2022-11-30T14:18:10.175Z,3.67
2022-11-30T14:20:38.323Z,4.68
2022-11-30T14:23:09.236Z,4.15
2022-11-30T14:25:37.417Z,3.83
2022-11-30T14:28:06.516Z,3.05
2022-11-30T14:30:35.197Z,4.32
2022-11-30T14:33:15.301Z,3.42
2022-11-30T14:35:55.581Z,3.25
2022-11-30T14:40:56.001Z,3.83
2022-11-30T14:43:24.076Z,3.70
2022-11-30T14:46:10.186Z,6.10
2022-11-30T14:48:40.885Z,3.20
2022-11-30T14:51:14.905Z,3.03
2022-11-30T14:53:55.703Z,3.88
2022-11-30T14:56:50.198Z,3.90
2022-11-30T14:59:46.748Z,3.92
2022-11-30T15:02:29.991Z,3.67
2022-11-30T15:04:58.893Z,5.63
2022-11-30T15:07:26.935Z,3.92
2022-11-30T15:10:04.937Z,6.03
2022-11-30T15:12:33.044Z,3.08
2022-11-30T15:15:03.894Z,3.00
2022-11-30T15:17:32.179Z,3.75
2022-11-30T15:20:00.027Z,3.58
2022-11-30T15:22:35.533Z,2.35
2022-11-30T15:25:03.973Z,4.32
2022-11-30T15:27:31.832Z,4.40
2022-11-30T15:30:01.243Z,2.90
2022-11-30T15:32:31.665Z,4.40
2022-11-30T15:35:01.052Z,3.08
2022-11-30T15:37:38.634Z,2.35
2022-11-30T15:40:08.060Z,1.77
2022-11-30T15:42:40.391Z,2.28
2022-11-30T15:45:20.209Z,4.63
2022-11-30T15:47:48.138Z,3.67
2022-11-30T15:50:31.161Z,2.40
2022-11-30T15:53:03.060Z,3.15
2022-11-30T15:55:50.487Z,2.40
2022-11-30T15:58:48.769Z,2.97
2022-11-30T16:01:22.580Z,3.40
2022-11-30T16:03:56.513Z,3.47
2022-11-30T16:06:25.498Z,1.88
2022-11-30T16:08:53.945Z,1.45
2022-11-30T16:11:21.944Z,2.42
2022-11-30T16:13:49.823Z,2.00
2022-11-30T16:16:30.442Z,1.95
2022-11-30T16:18:58.822Z,1.67
2022-11-30T16:21:27.108Z,1.40
2022-11-30T16:23:55.627Z,1.85
2022-11-30T16:26:49.509Z,1.70
2022-11-30T16:29:11.272Z,2.65
2022-11-30T16:31:39.302Z,1.88
2022-11-30T16:34:08.836Z,1.50
2022-11-30T16:36:38.351Z,1.05
2022-11-30T16:39:06.627Z,1.90
2022-11-30T16:41:36.219Z,1.30
2022-11-30T16:44:04.318Z,2.08
2022-11-30T16:46:32.352Z,1.15
2022-11-30T16:49:03.522Z,1.92
2022-11-30T16:51:32.302Z,1.38
2022-11-30T16:54:00.334Z,2.63
2022-11-30T16:56:28.238Z,1.20
2022-11-30T16:58:56.229Z,1.52
2022-11-30T17:01:23.914Z,1.55
2022-11-30T17:03:52.667Z,1.00
2022-11-30T17:06:21.392Z,1.25
2022-11-30T17:08:49.365Z,1.33
2022-11-30T17:11:19.141Z,1.25
2022-11-30T17:13:47.005Z,1.10
2022-11-30T17:16:14.923Z,1.10
2022-11-30T17:18:42.876Z,1.58
2022-11-30T17:21:14.032Z,1.27
2022-11-30T17:23:42.288Z,1.20
2022-11-30T17:26:10.181Z,1.52
2022-11-30T17:28:38.630Z,1.65
2022-11-30T17:31:06.763Z,1.50
2022-11-30T17:33:35.242Z,1.30
2022-11-30T17:36:05.463Z,1.52
2022-11-30T17:38:34.858Z,1.40
2022-11-30T17:41:06.289Z,1.65
2022-11-30T17:43:34.387Z,1.15
2022-11-30T17:46:09.322Z,1.35
2022-11-30T17:48:37.645Z,1.15
2022-11-30T17:51:05.688Z,0.95
2022-11-30T17:53:33.553Z,0.95
2022-11-30T17:56:27.884Z,1.20
2022-11-30T17:58:56.490Z,1.52
2022-11-30T18:01:25.333Z,1.52
2022-11-30T18:03:53.760Z,1.50
2022-11-30T18:06:21.728Z,1.42
2022-11-30T18:08:49.590Z,2.40
2022-11-30T18:11:21.299Z,1.70
2022-11-30T18:13:50.484Z,1.55
2022-11-30T18:16:21.551Z,1.10
2022-11-30T18:18:49.715Z,1.02
2022-11-30T18:21:22.186Z,1.15
2022-11-30T18:23:51.160Z,1.05
2022-11-30T18:26:20.432Z,1.52
2022-11-30T18:28:48.228Z,1.00
2022-11-30T18:31:16.194Z,1.20
2022-11-30T18:33:43.963Z,1.40
2022-11-30T18:36:11.788Z,1.50
2022-11-30T18:38:41.697Z,1.08
2022-11-30T18:41:09.411Z,1.73
2022-11-30T18:43:38.514Z,1.58
2022-11-30T18:46:10.246Z,1.17
2022-11-30T18:48:38.493Z,1.92
2022-11-30T18:51:16.504Z,1.23
2022-11-30T18:53:44.641Z,1.33
2022-11-30T18:56:13.989Z,1.30
2022-11-30T18:58:45.581Z,0.95
2022-11-30T19:01:14.711Z,1.77
2022-11-30T19:03:42.491Z,1.85
2022-11-30T19:06:10.930Z,1.33
2022-11-30T19:08:40.194Z,1.10
2022-11-30T19:11:09.040Z,1.30
2022-11-30T19:13:37.118Z,0.80
2022-11-30T19:16:09.214Z,1.00
2022-11-30T19:18:37.085Z,1.15
2022-11-30T19:21:09.438Z,1.00
2022-11-30T19:23:38.169Z,1.17
2022-11-30T19:26:06.459Z,0.93
2022-11-30T19:28:35.359Z,1.40
2022-11-30T19:31:07.809Z,1.13
2022-11-30T19:33:36.812Z,1.13
2022-11-30T19:36:05.514Z,1.20
2022-11-30T19:38:33.452Z,1.48
2022-11-30T19:41:05.363Z,0.93
2022-11-30T19:43:33.470Z,1.05
2022-11-30T19:46:15.378Z,1.30
2022-11-30T19:48:43.682Z,1.25
2022-11-30T19:51:17.623Z,1.30
2022-11-30T19:53:45.981Z,0.73
2022-11-30T19:56:17.708Z,1.10
2022-11-30T19:58:46.238Z,0.90
2022-11-30T20:01:14.785Z,1.10
2022-11-30T20:03:42.625Z,2.42
2022-11-30T20:06:10.511Z,1.50
2022-11-30T20:08:42.217Z,2.38
2022-11-30T20:11:10.517Z,1.67
2022-11-30T20:13:38.344Z,2.28
2022-11-30T20:16:13.471Z,2.35
2022-11-30T20:18:45.763Z,1.95
2022-11-30T20:21:16.132Z,1.75
2022-11-30T20:23:44.633Z,1.75
2022-11-30T20:26:17.071Z,1.17
2022-11-30T20:28:45.205Z,1.02
2022-11-30T20:31:14.073Z,1.10
2022-11-30T20:33:42.071Z,1.15
2022-11-30T20:36:10.791Z,0.90
2022-11-30T20:38:38.641Z,1.10
2022-11-30T20:41:08.984Z,1.33
2022-11-30T20:43:37.303Z,0.93
2022-11-30T20:46:13.073Z,1.13
2022-11-30T20:48:41.374Z,0.80
2022-11-30T20:54:01.267Z,1.25
2022-11-30T20:56:29.081Z,0.93
2022-11-30T20:58:56.976Z,1.00
2022-11-30T21:01:25.468Z,1.00
2022-11-30T21:03:53.358Z,0.93
2022-11-30T21:06:21.192Z,1.10
2022-11-30T21:08:49.107Z,1.27
2022-11-30T21:11:18.539Z,1.00
2022-11-30T21:13:47.076Z,1.20
2022-11-30T21:16:15.654Z,1.00
2022-11-30T21:18:44.617Z,1.17
2022-11-30T21:21:14.730Z,0.90
2022-11-30T21:26:18.570Z,0.90
2022-11-30T21:28:46.974Z,1.15
2022-11-30T21:31:15.172Z,0.88
2022-11-30T21:33:48.892Z,0.95
2022-11-30T21:36:20.710Z,1.38
2022-11-30T21:38:49.134Z,0.75
2022-11-30T21:41:16.938Z,1.00
2022-11-30T21:43:44.688Z,1.13
2022-11-30T21:46:16.594Z,1.13
2022-11-30T21:48:44.887Z,0.90
2022-11-30T21:51:13.629Z,0.80
2022-11-30T21:53:43.380Z,0.90
2022-11-30T21:56:15.045Z,0.90
2022-11-30T21:58:44.077Z,0.90
2022-11-30T22:01:16.212Z,0.75
2022-11-30T22:03:44.329Z,0.55
2022-11-30T22:06:13.543Z,1.00
2022-11-30T22:08:41.396Z,0.80
2022-11-30T22:11:15.107Z,0.80
2022-11-30T22:13:43.026Z,0.88
2022-11-30T22:16:12.411Z,0.80
2022-11-30T22:18:40.577Z,0.90
2022-11-30T22:21:13.808Z,0.80
2022-11-30T22:23:43.379Z,0.90
2022-11-30T22:26:11.116Z,0.93
2022-11-30T22:28:39.055Z,0.77
2022-11-30T22:31:07.458Z,0.98
2022-11-30T22:33:38.709Z,1.02
2022-11-30T22:36:07.516Z,1.15
2022-11-30T22:38:35.466Z,0.90
2022-11-30T22:41:06.349Z,1.00
2022-11-30T22:43:34.320Z,1.10
2022-11-30T22:46:06.104Z,1.00
2022-11-30T22:48:34.233Z,0.95
2022-11-30T22:51:06.258Z,1.10
2022-11-30T22:53:35.208Z,0.90
2022-11-30T22:56:03.648Z,0.90
2022-11-30T22:58:31.797Z,0.90
2022-11-30T23:00:59.970Z,0.93
2022-11-30T23:03:28.411Z,0.90
2022-11-30T23:05:56.314Z,0.85
2022-11-30T23:08:24.170Z,0.68
2022-11-30T23:10:52.067Z,0.90
2022-11-30T23:13:20.003Z,0.80
2022-11-30T23:15:49.643Z,0.98
2022-11-30T23:18:17.888Z,1.23
2022-11-30T23:20:45.789Z,1.15
2022-11-30T23:23:15.287Z,0.90
2022-11-30T23:25:43.120Z,0.77
2022-11-30T23:28:11.132Z,1.08
2022-11-30T23:30:39.071Z,0.90
2022-11-30T23:33:06.874Z,1.20
2022-11-30T23:35:34.688Z,0.90
2022-11-30T23:38:02.650Z,1.15
2022-11-30T23:40:30.511Z,0.85
2022-11-30T23:42:58.418Z,0.60
2022-11-30T23:45:26.287Z,1.00
2022-11-30T23:47:54.075Z,0.65
2022-11-30T23:50:21.965Z,1.30
2022-11-30T23:52:49.783Z,0.90
2022-11-30T23:55:17.668Z,0.80
2022-11-30T23:57:45.586Z,0.52
